West Chester Brandywine Airpo, PA

3:21 AM EST on November 18, 2019 (GMT -0500)
West Chester Brandywine Airpo

Weather History for KOQN - October, 2019

Change the Weather History Date:

Monday, October 21, 2019

  Actual Average (WUND) Record (WUND)
Temperature  
Mean Temperature 59 °F -  
Max Temperature 68 °F - - (-1)
Min Temperature 50 °F - - (-1)
Degree Days  
Heating Degree Days 6    
Growing Degree Days 9 (Base 50)    
Moisture  
Dew Point 48 °F    
Average Humidity 73    
Maximum Humidity 94    
Minimum Humidity 43    
Precipitation  
Precipitation 0.00 in - - ()
Sea Level Pressure  
Sea Level Pressure 30.06 in    
Wind  
Wind Speed 5 mph (NE)    
Max Wind Speed 9 mph    
Max Gust Speed -    
Visibility 10 miles    
Events      
Averages and records for this station are not official NWS values.
T = Trace of Precipitation, MM = Missing Value Source: NWS Daily Summary

Daily Weather History Graph

Daily Weather History Graph

Search for Another Location

Airport or City:

Astronomy

Oct. 21, 2019 Rise Set
Actual Time 7:18 AM EDT 6:14 PM EDT
Civil Twilight 6:51 AM EDT 6:41 PM EDT
Nautical Twilight 6:19 AM EDT 7:13 PM EDT
Astronomical Twilight 5:48 AM EDT 7:44 PM EDT
Moon No Moon Rise 2:35 PM EDT (10/21)
Length of Visible Light 11h 50m
Length of Day
10h 55m
Waning Gibbous, 48% of the Moon is Illuminated
Oct 21
Waning Gibbous
Oct 27
New
Nov 4
First Quarter
Nov 12
Full
Nov 19
Last Quarter

Hourly Weather History & Observations

Time (EDT) Temp. Dew Point Humidity Pressure Visibility Wind Dir Wind Speed Gust Speed Precip Events Conditions
12:15 AM 51.8 °F 50.0 °F 94% 29.97 in 7.0 mi NNE 5.8 mph - N/A   Overcast
12:35 AM 51.8 °F 50.0 °F 94% 29.96 in 7.0 mi NNE 5.8 mph - N/A   Overcast
12:55 AM 51.8 °F 50.0 °F 94% 29.97 in 5.0 mi NNE 5.8 mph - N/A   Overcast
1:15 AM 51.8 °F 50.0 °F 94% 29.97 in 7.0 mi NE 6.9 mph - N/A   Overcast
1:35 AM 51.8 °F 50.0 °F 94% 29.98 in 7.0 mi North 5.8 mph - N/A   Overcast
1:55 AM 51.8 °F 50.0 °F 94% 29.99 in 10.0 mi North 4.6 mph - N/A   Overcast
2:15 AM 51.8 °F 50.0 °F 94% 29.98 in 10.0 mi NE 5.8 mph - N/A   Overcast
2:35 AM 51.8 °F 50.0 °F 94% 29.99 in 10.0 mi North 6.9 mph - N/A   Overcast
2:55 AM 51.8 °F 50.0 °F 94% 29.99 in 10.0 mi North 5.8 mph - N/A   Overcast
3:15 AM 51.8 °F 50.0 °F 94% 29.99 in 10.0 mi NNW 5.8 mph - N/A   Overcast
3:35 AM 51.8 °F 48.2 °F 88% 29.99 in 10.0 mi North 6.9 mph - N/A   Overcast
3:55 AM 50.0 °F 48.2 °F 94% 29.99 in 10.0 mi North 3.5 mph - N/A   Mostly Cloudy
4:15 AM 50.0 °F 46.4 °F 87% 29.99 in 10.0 mi North 6.9 mph - N/A   Scattered Clouds
4:35 AM 50.0 °F 46.4 °F 87% 30.01 in 10.0 mi North 8.1 mph - N/A   Clear
4:55 AM 50.0 °F 46.4 °F 87% 30.01 in 10.0 mi North 4.6 mph - N/A   Clear
5:15 AM 50.0 °F 46.4 °F 87% 30.02 in 10.0 mi North 6.9 mph - N/A   Clear
5:35 AM 50.0 °F 46.4 °F 87% 30.04 in 10.0 mi North 6.9 mph - N/A   Clear
5:55 AM 50.0 °F 46.4 °F 87% 30.04 in 10.0 mi North 4.6 mph - N/A   Clear
6:15 AM 50.0 °F 46.4 °F 87% 30.04 in 10.0 mi North 5.8 mph - N/A   Clear
6:35 AM 50.0 °F 46.4 °F 87% 30.04 in 10.0 mi NNE 5.8 mph - N/A   Clear
6:55 AM 50.0 °F 46.4 °F 87% 30.05 in 10.0 mi NNE 4.6 mph - N/A   Clear
7:15 AM 50.0 °F 46.4 °F 87% 30.05 in 10.0 mi NNE 4.6 mph - N/A   Clear
7:35 AM 50.0 °F 46.4 °F 87% 30.05 in 10.0 mi NE 4.6 mph - N/A   Clear
7:55 AM 50.0 °F 46.4 °F 87% 30.06 in 10.0 mi NE 4.6 mph - N/A   Clear
8:15 AM 50.0 °F 46.4 °F 87% 30.06 in 10.0 mi North 3.5 mph - N/A   Clear
8:35 AM 51.8 °F 46.4 °F 82% 30.07 in 10.0 mi NE 4.6 mph - N/A   Clear
8:55 AM 51.8 °F 46.4 °F 82% 30.08 in 10.0 mi NNE 4.6 mph - N/A   Clear
9:15 AM 53.6 °F 46.4 °F 77% 30.08 in 10.0 mi NNE 9.2 mph - N/A   Clear
9:35 AM 53.6 °F 46.4 °F 77% 30.07 in 10.0 mi NNE 8.1 mph - N/A   Clear
9:55 AM 55.4 °F 46.4 °F 72% 30.09 in 10.0 mi NNE 4.6 mph - N/A   Clear
10:15 AM 55.4 °F 46.4 °F 72% 30.09 in 10.0 mi NE 4.6 mph - N/A   Clear
10:35 AM 57.2 °F 46.4 °F 67% 30.09 in 10.0 mi North 4.6 mph - N/A   Clear
10:55 AM 59.0 °F 46.4 °F 63% 30.09 in 10.0 mi NNE 6.9 mph - N/A   Clear
11:15 AM 59.0 °F 46.4 °F 63% 30.09 in 10.0 mi NE 6.9 mph - N/A   Clear
11:35 AM 60.8 °F 46.4 °F 59% 30.09 in 10.0 mi NNE 8.1 mph - N/A   Clear
11:55 AM 60.8 °F 46.4 °F 59% 30.08 in 10.0 mi North 8.1 mph - N/A   Clear
12:15 PM 62.6 °F 46.4 °F 55% 30.09 in 10.0 mi North 5.8 mph - N/A   Clear
12:35 PM 62.6 °F 46.4 °F 55% 30.08 in 10.0 mi North 4.6 mph - N/A   Clear
12:55 PM 64.4 °F 46.4 °F 52% 30.07 in 10.0 mi NE 5.8 mph - N/A   Clear
1:15 PM 64.4 °F 46.4 °F 52% 30.07 in 10.0 mi ENE 6.9 mph - N/A   Clear
1:35 PM 64.4 °F 46.4 °F 52% 30.06 in 10.0 mi NE 4.6 mph - N/A   Clear
1:55 PM 64.4 °F 46.4 °F 52% 30.06 in 10.0 mi East 3.5 mph - N/A   Clear
2:15 PM 66.2 °F 46.4 °F 49% 30.05 in 10.0 mi ENE 4.6 mph - N/A   Clear
2:35 PM 66.2 °F 46.4 °F 49% 30.05 in 10.0 mi ESE 4.6 mph - N/A   Clear
2:55 PM 66.2 °F 46.4 °F 49% 30.06 in 10.0 mi NE 3.5 mph - N/A   Clear
3:15 PM 68.0 °F 46.4 °F 46% 30.05 in 10.0 mi Calm Calm - N/A   Clear
3:35 PM 68.0 °F 44.6 °F 43% 30.06 in 10.0 mi ENE 3.5 mph - N/A   Clear
3:55 PM 68.0 °F 44.6 °F 43% 30.06 in 10.0 mi East 3.5 mph - N/A   Clear
4:15 PM 68.0 °F 44.6 °F 43% 30.06 in 10.0 mi East 4.6 mph - N/A   Clear
4:35 PM 68.0 °F 44.6 °F 43% 30.05 in 10.0 mi East 3.5 mph - N/A   Clear
4:55 PM 66.2 °F 44.6 °F 46% 30.06 in 10.0 mi East 5.8 mph - N/A   Clear
5:15 PM 66.2 °F 44.6 °F 46% 30.06 in 10.0 mi ESE 5.8 mph - N/A   Clear
5:35 PM 64.4 °F 42.8 °F 45% 30.07 in 10.0 mi SE 4.6 mph - N/A   Clear
5:55 PM 64.4 °F 44.6 °F 49% 30.07 in 10.0 mi ESE 3.5 mph - N/A   Clear
6:15 PM 62.6 °F 44.6 °F 52% 30.06 in 10.0 mi Calm Calm - N/A   Clear
6:35 PM 60.8 °F 44.6 °F 55% 30.08 in 10.0 mi Calm Calm - N/A   Clear
6:55 PM 59.0 °F 44.6 °F 59% 30.09 in 10.0 mi Calm Calm - N/A   Clear
7:15 PM 57.2 °F 46.4 °F 67% 30.09 in 10.0 mi Calm Calm - N/A   Clear
7:35 PM 55.4 °F 46.4 °F 72% 30.10 in 10.0 mi Calm Calm - N/A   Clear
7:55 PM 53.6 °F 46.4 °F 77% 30.10 in 10.0 mi East 3.5 mph - N/A   Clear
8:15 PM 55.4 °F 46.4 °F 72% 30.10 in 10.0 mi Calm Calm - N/A   Clear
8:35 PM 55.4 °F 48.2 °F 77% 30.11 in 10.0 mi Calm Calm - N/A   Clear
8:55 PM 55.4 °F 50.0 °F 82% 30.11 in 10.0 mi ESE 4.6 mph - N/A   Clear
9:15 PM 55.4 °F 51.8 °F 88% 30.10 in 10.0 mi ESE 3.5 mph - N/A   Clear
9:35 PM 57.2 °F 53.6 °F 88% 30.10 in 10.0 mi ESE 4.6 mph - N/A   Scattered Clouds
9:55 PM 57.2 °F 53.6 °F 88% 30.11 in 10.0 mi Calm Calm - N/A   Mostly Cloudy
10:15 PM 57.2 °F 53.6 °F 88% 30.12 in 10.0 mi SE 4.6 mph - N/A   Overcast
10:35 PM 57.2 °F 53.6 °F 88% 30.11 in 10.0 mi SE 3.5 mph - N/A   Overcast
10:55 PM 57.2 °F 53.6 °F 88% 30.11 in 10.0 mi SE 4.6 mph - N/A   Overcast
11:15 PM 57.2 °F 51.8 °F 82% 30.11 in 10.0 mi ESE 5.8 mph - N/A   Overcast
11:35 PM 57.2 °F 51.8 °F 82% 30.11 in 10.0 mi SE 5.8 mph - N/A   Overcast
11:55 PM 57.2 °F 51.8 °F 82% 30.12 in 10.0 mi Calm Calm - N/A   Overcast